createdAt,value
2017-03-16T00:00:44.379Z,30
2017-03-16T00:01:43.835Z,30.19
2017-03-16T00:02:44.237Z,30.38
2017-03-16T00:03:43.918Z,30.29
2017-03-16T00:04:43.949Z,30.19
2017-03-16T00:05:43.905Z,30.19
2017-03-16T00:06:43.862Z,30.19
2017-03-16T00:07:44.514Z,30.29
2017-03-16T00:08:43.870Z,30.1
2017-03-16T00:09:43.877Z,29.9
2017-03-16T00:10:43.882Z,30
2017-03-16T00:11:43.890Z,30
2017-03-16T00:12:43.897Z,30
2017-03-16T00:13:43.949Z,30.1
2017-03-16T00:14:43.908Z,30.19
2017-03-16T00:15:43.910Z,30
2017-03-16T00:16:43.916Z,30.11
2017-03-16T00:17:43.922Z,30.1
2017-03-16T00:18:43.977Z,30.29
2017-03-16T00:19:43.981Z,29.9
2017-03-16T00:20:43.988Z,30
2017-03-16T00:21:43.994Z,30.21
2017-03-16T00:22:44.001Z,30.19
2017-03-16T00:23:44.006Z,30
2017-03-16T00:24:43.961Z,29.9
2017-03-16T00:25:43.968Z,29.9
2017-03-16T00:26:43.659Z,29.8
2017-03-16T00:27:43.977Z,29.72
2017-03-16T00:28:44.284Z,30
2017-03-16T00:29:44.291Z,29.82
2017-03-16T00:30:43.995Z,30.19
2017-03-16T00:31:44.001Z,30.1
2017-03-16T00:32:44.107Z,29.9
2017-03-16T00:33:44.115Z,30
2017-03-16T00:34:44.016Z,30
2017-03-16T00:35:44.072Z,30.38
2017-03-16T00:36:44.028Z,30.4
2017-03-16T00:37:44.032Z,29.63
2017-03-16T00:38:44.039Z,30.38
2017-03-16T00:39:44.046Z,29.82
2017-03-16T00:40:44.048Z,29.91
2017-03-16T00:41:44.106Z,29.91
2017-03-16T00:42:44.110Z,30.38
2017-03-16T00:43:44.067Z,30.21
2017-03-16T00:44:43.761Z,29.9
2017-03-16T00:45:43.766Z,29.9
2017-03-16T00:46:44.083Z,30.11
2017-03-16T00:47:44.140Z,29.91
2017-03-16T00:48:43.781Z,30
2017-03-16T00:49:43.786Z,30.19
2017-03-16T00:50:43.792Z,30.11
2017-03-16T00:51:44.110Z,30.11
2017-03-16T00:52:44.115Z,30.11
2017-03-16T00:53:43.858Z,30.11
2017-03-16T00:54:44.127Z,29.91
2017-03-16T00:55:44.132Z,29.72
2017-03-16T00:56:44.136Z,29.91
2017-03-16T00:57:44.143Z,30.11
2017-03-16T00:58:43.835Z,29.91
2017-03-16T00:59:44.155Z,29.82
2017-03-16T01:00:44.160Z,30.01
2017-03-16T01:01:44.216Z,30.01
2017-03-16T01:02:44.223Z,30.11
2017-03-16T01:03:44.174Z,29.8
2017-03-16T01:04:44.182Z,29.43
2017-03-16T01:05:44.188Z,29.53
2017-03-16T01:06:44.241Z,29.53
2017-03-16T01:07:44.195Z,30.11
2017-03-16T01:08:44.203Z,29.91
2017-03-16T01:09:44.209Z,30.21
2017-03-16T01:10:44.262Z,29.34
2017-03-16T01:11:44.271Z,29.24
2017-03-16T01:12:44.225Z,29.24
2017-03-16T01:13:44.280Z,29.24
2017-03-16T01:14:44.239Z,29.24
2017-03-16T01:15:44.242Z,29.24
2017-03-16T01:16:44.299Z,29.24
2017-03-16T01:17:44.305Z,29.34
2017-03-16T01:18:43.998Z,29.34
2017-03-16T01:19:44.314Z,29.14
2017-03-16T01:20:44.270Z,29.24
2017-03-16T01:21:44.062Z,29.34
2017-03-16T01:22:44.379Z,29.43
2017-03-16T01:23:44.287Z,29.43
2017-03-16T01:24:44.344Z,29.34
2017-03-16T01:25:44.350Z,29.43
2017-03-16T01:26:44.409Z,29.43
2017-03-16T01:27:43.996Z,29.43
2017-03-16T01:28:44.315Z,29.34
2017-03-16T01:29:44.319Z,29.53
2017-03-16T01:30:44.326Z,29.43
2017-03-16T01:31:44.383Z,29.43
2017-03-16T01:32:44.386Z,28.95
2017-03-16T01:33:44.343Z,29.43
2017-03-16T01:34:44.349Z,29.43
2017-03-16T01:35:44.407Z,29.43
2017-03-16T01:36:44.362Z,29.43
2017-03-16T01:37:44.414Z,29.05
2017-03-16T01:38:44.375Z,29.53
2017-03-16T01:39:44.374Z,29.53
2017-03-16T01:40:44.068Z,29.43
2017-03-16T01:41:44.386Z,29.43
2017-03-16T01:42:44.079Z,29.34
2017-03-16T01:43:44.396Z,29.34
2017-03-16T01:44:44.402Z,29.53
2017-03-16T01:45:44.457Z,29.43
2017-03-16T01:46:44.103Z,29.34
2017-03-16T01:47:44.419Z,29.43
2017-03-16T01:48:44.475Z,29.43
2017-03-16T01:49:44.433Z,28.85
2017-03-16T01:50:44.485Z,28.95
2017-03-16T01:51:44.442Z,29.63
2017-03-16T01:52:44.449Z,28.85
2017-03-16T01:53:44.456Z,28.95
2017-03-16T01:54:44.457Z,28.85
2017-03-16T01:55:44.515Z,29.05
2017-03-16T01:56:44.521Z,28.85
2017-03-16T01:57:44.526Z,28.95
2017-03-16T01:58:44.482Z,29.72
2017-03-16T01:59:44.487Z,29.63
2017-03-16T02:00:44.490Z,29.14
2017-03-16T02:01:44.498Z,29.53
2017-03-16T02:02:44.241Z,28.95
2017-03-16T02:03:44.560Z,28.85
2017-03-16T02:04:44.565Z,28.95
2017-03-16T02:05:44.258Z,29.05
2017-03-16T02:06:44.528Z,28.95
2017-03-16T02:07:44.533Z,29.14
2017-03-16T02:08:44.587Z,29.05
2017-03-16T02:09:44.279Z,28.95
2017-03-16T02:10:44.550Z,28.95
2017-03-16T02:11:44.553Z,28.95
2017-03-16T02:12:44.607Z,28.95
2017-03-16T02:13:44.562Z,28.95
2017-03-16T02:14:44.571Z,28.85
2017-03-16T02:15:44.577Z,28.95
2017-03-16T02:16:44.580Z,29.05
2017-03-16T02:17:44.638Z,29.05
2017-03-16T02:18:44.594Z,29.05
2017-03-16T02:19:44.284Z,29.05
2017-03-16T02:20:44.704Z,28.95
2017-03-16T02:21:44.709Z,29.05
2017-03-16T02:22:44.302Z,29.24
2017-03-16T02:23:44.302Z,29.14
2017-03-16T02:24:44.625Z,29.14
2017-03-16T02:25:44.680Z,29.14
2017-03-16T02:26:44.687Z,29.24
2017-03-16T02:27:44.642Z,28.95
2017-03-16T02:28:44.655Z,28.95
2017-03-16T02:29:44.342Z,28.95
2017-03-16T02:30:44.708Z,28.95
2017-03-16T02:31:44.352Z,28.95
2017-03-16T02:32:44.721Z,29.14
2017-03-16T02:33:44.673Z,29.24
2017-03-16T02:34:44.678Z,29.14
2017-03-16T02:35:44.684Z,28.95
2017-03-16T02:36:44.691Z,28.95
2017-03-16T02:37:44.695Z,29.05
2017-03-16T02:38:44.703Z,28.85
2017-03-16T02:39:44.808Z,29.43
2017-03-16T02:40:44.714Z,29.05
2017-03-16T02:41:44.719Z,29.05
2017-03-16T02:42:44.723Z,28.95
2017-03-16T02:43:44.732Z,28.95
2017-03-16T02:44:44.834Z,29.63
2017-03-16T02:45:44.742Z,29.43
2017-03-16T02:46:44.795Z,28.95
2017-03-16T02:47:44.491Z,29.05
2017-03-16T02:48:44.759Z,28.95
2017-03-16T02:49:44.817Z,29.05
2017-03-16T02:50:44.819Z,29.05
2017-03-16T02:51:44.825Z,28.95
2017-03-16T02:52:44.778Z,28.95
2017-03-16T02:53:44.833Z,28.95
2017-03-16T02:54:44.792Z,28.85
2017-03-16T02:55:44.798Z,28.95
2017-03-16T02:56:44.852Z,29.43
2017-03-16T02:57:44.808Z,28.85
2017-03-16T02:58:44.501Z,28.85
2017-03-16T02:59:44.872Z,28.85
2017-03-16T03:00:44.877Z,28.95
2017-03-16T03:01:44.518Z,28.95
2017-03-16T03:02:44.839Z,28.95
2017-03-16T03:03:44.844Z,29.05
2017-03-16T03:04:44.895Z,28.95
2017-03-16T03:05:44.851Z,28.95
2017-03-16T03:06:44.857Z,29.05
2017-03-16T03:07:44.601Z,29.05
2017-03-16T03:08:44.869Z,29.05
2017-03-16T03:09:44.875Z,28.95
2017-03-16T03:10:44.931Z,29.14
2017-03-16T03:11:44.885Z,29.24
2017-03-16T03:12:44.892Z,28.95
2017-03-16T03:13:44.897Z,29.05
2017-03-16T03:14:44.953Z,29.05
2017-03-16T03:15:44.908Z,29.14
2017-03-16T03:16:44.912Z,29.05
2017-03-16T03:17:44.969Z,29.05
2017-03-16T03:18:44.972Z,29.14
2017-03-16T03:19:44.618Z,29.63
2017-03-16T03:20:44.985Z,28.95
2017-03-16T03:21:44.942Z,29.05
2017-03-16T03:22:44.947Z,29.05
2017-03-16T03:23:45.051Z,29.05
2017-03-16T03:24:44.961Z,29.05
2017-03-16T03:25:45.013Z,29.05
2017-03-16T03:26:45.021Z,29.05
2017-03-16T03:27:44.974Z,29.14
2017-03-16T03:28:44.668Z,29.05
2017-03-16T03:29:44.985Z,29.05
2017-03-16T03:30:44.686Z,29.05
2017-03-16T03:31:45.095Z,29.05
2017-03-16T03:32:45.002Z,28.95
2017-03-16T03:33:45.010Z,28.95
2017-03-16T03:34:45.016Z,29.14
2017-03-16T03:35:45.071Z,29.24
2017-03-16T03:36:45.025Z,29.14
2017-03-16T03:37:45.032Z,28.95
2017-03-16T03:38:45.037Z,28.95
2017-03-16T03:39:45.042Z,29.05
2017-03-16T03:40:45.146Z,28.95
2017-03-16T03:41:45.053Z,29.05
2017-03-16T03:42:45.057Z,28.95
2017-03-16T03:43:45.062Z,28.94
2017-03-16T03:44:44.753Z,28.95
2017-03-16T03:45:45.127Z,28.95
2017-03-16T03:46:45.082Z,28.95
2017-03-16T03:47:45.086Z,29.34
2017-03-16T03:48:45.091Z,28.85
2017-03-16T03:49:45.198Z,29.24
2017-03-16T03:50:45.106Z,28.95
2017-03-16T03:51:45.109Z,29.03
2017-03-16T03:52:45.116Z,28.95
2017-03-16T03:53:44.806Z,29.14
2017-03-16T03:54:45.153Z,28.94
2017-03-16T03:55:45.128Z,28.95
2017-03-16T03:56:45.188Z,29.05
2017-03-16T03:57:45.190Z,28.95
2017-03-16T03:58:45.198Z,29.05
2017-03-16T03:59:45.202Z,29.63
2017-03-16T04:00:45.157Z,29.05
2017-03-16T04:01:45.164Z,29.52
2017-03-16T04:02:45.218Z,29.14
2017-03-16T04:03:45.275Z,28.95
2017-03-16T04:04:44.867Z,28.95
2017-03-16T04:05:45.184Z,28.94
2017-03-16T04:06:44.931Z,28.95
2017-03-16T04:07:44.882Z,28.95
2017-03-16T04:08:45.403Z,28.95
2017-03-16T04:09:44.895Z,28.94
2017-03-16T04:10:45.260Z,29.03
2017-03-16T04:11:45.218Z,29.05
2017-03-16T04:12:45.225Z,28.95
2017-03-16T04:13:45.281Z,28.95
2017-03-16T04:14:45.234Z,28.95
2017-03-16T04:15:45.239Z,28.84
2017-03-16T04:16:45.346Z,29.05
2017-03-16T04:17:45.301Z,28.84
2017-03-16T04:18:45.306Z,28.95
2017-03-16T04:19:44.997Z,29.42
2017-03-16T04:20:45.279Z,29.05
2017-03-16T04:21:45.012Z,29.42
2017-03-16T04:22:45.280Z,28.84
2017-03-16T04:23:45.286Z,29.05
2017-03-16T04:24:45.342Z,29.61
2017-03-16T04:25:45.296Z,29.72
2017-03-16T04:26:45.353Z,29.52
2017-03-16T04:27:45.855Z,28.94
2017-03-16T04:28:45.314Z,28.94
2017-03-16T04:29:45.317Z,29.32
2017-03-16T04:30:45.322Z,29.32
2017-03-16T04:31:45.325Z,29.42
2017-03-16T04:32:45.021Z,29.32
2017-03-16T04:33:45.387Z,29.42
2017-03-16T04:34:45.443Z,28.94
2017-03-16T04:35:45.349Z,29.42
2017-03-16T04:36:45.355Z,29.13
2017-03-16T04:37:45.098Z,29.03
2017-03-16T04:38:45.417Z,28.94
2017-03-16T04:39:45.368Z,29.13
2017-03-16T04:40:45.376Z,28.94
2017-03-16T04:41:45.431Z,28.94
2017-03-16T04:42:45.439Z,28.94
2017-03-16T04:43:45.391Z,29.13
2017-03-16T04:44:45.446Z,29.14
2017-03-16T04:45:45.454Z,29.24
2017-03-16T04:46:45.098Z,29.05
2017-03-16T04:47:45.413Z,29.05
2017-03-16T04:48:45.471Z,28.94
2017-03-16T04:49:45.429Z,29.05
2017-03-16T04:50:45.480Z,29.13
2017-03-16T04:51:45.172Z,29.03
2017-03-16T04:52:45.130Z,29.13
2017-03-16T04:53:45.498Z,29.13
2017-03-16T04:54:45.139Z,28.95
2017-03-16T04:55:45.456Z,29.03
2017-03-16T04:56:45.463Z,29.03
2017-03-16T04:57:45.518Z,29.03
2017-03-16T04:58:45.574Z,29.03
2017-03-16T04:59:45.166Z,28.94
2017-03-16T05:00:45.484Z,29.03
2017-03-16T05:01:45.489Z,29.05
2017-03-16T05:02:45.498Z,29.03
2017-03-16T05:03:45.505Z,29.14
2017-03-16T05:04:45.191Z,29.32
2017-03-16T05:05:45.511Z,29.22
2017-03-16T05:06:45.819Z,29.03
2017-03-16T05:07:45.521Z,29.24
2017-03-16T05:08:45.529Z,29.13
2017-03-16T05:09:45.637Z,29.13
2017-03-16T05:10:45.541Z,29.03
2017-03-16T05:11:45.544Z,29.13
2017-03-16T05:12:45.553Z,29.05
2017-03-16T05:13:45.555Z,29.05
2017-03-16T05:14:45.612Z,29.05
2017-03-16T05:15:45.567Z,29.05
2017-03-16T05:16:45.573Z,28.74
2017-03-16T05:17:45.631Z,28.95
2017-03-16T05:18:45.583Z,28.76
2017-03-16T05:19:45.275Z,28.85
2017-03-16T05:20:45.645Z,28.76
2017-03-16T05:21:45.599Z,28.95
2017-03-16T05:22:45.656Z,28.95
2017-03-16T05:23:45.612Z,28.85
2017-03-16T05:24:45.616Z,28.85
2017-03-16T05:25:45.721Z,28.85
2017-03-16T05:26:45.313Z,28.85
2017-03-16T05:27:45.631Z,28.85
2017-03-16T05:28:45.375Z,28.95
2017-03-16T05:29:45.692Z,28.95
2017-03-16T05:30:45.336Z,28.85
2017-03-16T05:31:45.703Z,28.85
2017-03-16T05:32:45.661Z,28.76
2017-03-16T05:33:45.665Z,28.95
2017-03-16T05:34:45.671Z,28.76
2017-03-16T05:35:45.725Z,28.85
2017-03-16T05:36:45.683Z,28.76
2017-03-16T05:37:45.687Z,28.85
2017-03-16T05:38:45.431Z,28.85
2017-03-16T05:39:45.722Z,28.95
2017-03-16T05:40:45.703Z,28.95
2017-03-16T05:41:45.708Z,28.85
2017-03-16T05:42:45.406Z,28.76
2017-03-16T05:43:45.410Z,28.95
2017-03-16T05:44:45.725Z,28.85
2017-03-16T05:45:45.729Z,28.85
2017-03-16T05:46:46.384Z,28.76
2017-03-16T05:47:45.780Z,28.95
2017-03-16T05:48:45.796Z,28.76
2017-03-16T05:49:45.751Z,28.85
2017-03-16T05:50:45.759Z,28.76
2017-03-16T05:51:45.473Z,28.56
2017-03-16T05:52:45.819Z,28.56
2017-03-16T05:53:45.509Z,28.76
2017-03-16T05:54:45.466Z,28.66
2017-03-16T05:55:45.474Z,28.76
2017-03-16T05:56:45.840Z,28.66
2017-03-16T05:57:45.483Z,28.47
2017-03-16T05:58:45.801Z,28.47
2017-03-16T05:59:45.806Z,28.56
2017-03-16T06:00:45.498Z,28.66
2017-03-16T06:01:45.507Z,28.56
2017-03-16T06:02:45.870Z,28.66
2017-03-16T06:03:45.828Z,28.85
2017-03-16T06:04:45.832Z,28.85
2017-03-16T06:05:45.575Z,28.56
2017-03-16T06:06:45.841Z,28.66
2017-03-16T06:07:45.848Z,28.76
2017-03-16T06:08:45.907Z,28.56
2017-03-16T06:09:45.861Z,28.37
2017-03-16T06:10:45.863Z,28.47
2017-03-16T06:11:45.870Z,28.37
2017-03-16T06:12:45.929Z,28.56
2017-03-16T06:13:45.885Z,27.89
2017-03-16T06:14:45.885Z,28.37
2017-03-16T06:15:45.892Z,28.37
2017-03-16T06:16:46.048Z,28.47
2017-03-16T06:17:45.957Z,28.28
2017-03-16T06:18:45.913Z,28.28
2017-03-16T06:19:45.965Z,27.8
2017-03-16T06:20:45.609Z,28.37
2017-03-16T06:21:45.929Z,28.37
2017-03-16T06:22:45.981Z,27.7
2017-03-16T06:23:46.288Z,27.98
2017-03-16T06:24:45.940Z,27.89
2017-03-16T06:25:46.000Z,27.98
2017-03-16T06:26:46.005Z,27.98
2017-03-16T06:27:45.965Z,27.98
2017-03-16T06:28:45.706Z,28.08
2017-03-16T06:29:46.018Z,28.18
2017-03-16T06:30:46.076Z,27.91
2017-03-16T06:31:45.980Z,28.08
2017-03-16T06:32:45.676Z,28.18
2017-03-16T06:33:46.094Z,28.18
2017-03-16T06:34:45.998Z,28.09
2017-03-16T06:35:46.002Z,28.19
2017-03-16T06:36:46.011Z,28.29
2017-03-16T06:37:46.016Z,28.09
2017-03-16T06:38:46.323Z,28.08
2017-03-16T06:39:45.714Z,28.09
2017-03-16T06:40:45.820Z,28.09
2017-03-16T06:41:46.038Z,28.09
2017-03-16T06:42:46.044Z,28
2017-03-16T06:43:46.051Z,28.19
2017-03-16T06:44:45.821Z,28.09
2017-03-16T06:45:46.109Z,28.19
2017-03-16T06:46:46.066Z,28.19
2017-03-16T06:47:46.077Z,28.19
2017-03-16T06:48:46.139Z,28.09
2017-03-16T06:49:46.084Z,28.09
2017-03-16T06:50:46.090Z,28
2017-03-16T06:51:46.094Z,28
2017-03-16T06:52:46.154Z,28
2017-03-16T06:53:46.108Z,28
2017-03-16T06:54:46.113Z,28.19
2017-03-16T06:55:46.174Z,28.09
2017-03-16T06:56:46.173Z,28.09
2017-03-16T06:57:46.230Z,28
2017-03-16T06:58:45.872Z,28.09
2017-03-16T06:59:46.192Z,27.61
2017-03-16T07:00:45.830Z,27.71
2017-03-16T07:01:46.150Z,27.81
2017-03-16T07:02:46.160Z,27.71
2017-03-16T07:03:46.214Z,28
2017-03-16T07:04:45.857Z,27.91
2017-03-16T07:05:46.185Z,27.61
2017-03-16T07:06:46.182Z,27.91
2017-03-16T07:07:46.185Z,28
2017-03-16T07:08:46.241Z,28
2017-03-16T07:09:46.197Z,28
2017-03-16T07:10:46.251Z,28
2017-03-16T07:11:46.207Z,28
2017-03-16T07:12:47.316Z,28
2017-03-16T07:13:46.270Z,27.91
2017-03-16T07:14:46.226Z,28.09
2017-03-16T07:15:46.230Z,28.09
2017-03-16T07:16:45.971Z,28.09
2017-03-16T07:17:46.239Z,28
2017-03-16T07:18:46.298Z,28.18
2017-03-16T07:19:46.253Z,28.09
2017-03-16T07:20:46.309Z,28.28
2017-03-16T07:21:46.265Z,28.18
2017-03-16T07:22:46.321Z,28.09
2017-03-16T07:23:46.278Z,28.19
2017-03-16T07:24:46.283Z,28.08
2017-03-16T07:25:46.288Z,28.19
2017-03-16T07:26:46.292Z,28.29
2017-03-16T07:27:45.990Z,28.09
2017-03-16T07:28:46.306Z,28.09
2017-03-16T07:29:46.366Z,28.19
2017-03-16T07:30:46.364Z,27.91
2017-03-16T07:31:46.322Z,27.91
2017-03-16T07:32:46.331Z,27.62
2017-03-16T07:33:46.334Z,27.53
2017-03-16T07:34:46.338Z,27.24
2017-03-16T07:35:46.344Z,27.14
2017-03-16T07:36:46.402Z,27.35
2017-03-16T07:37:46.354Z,26.77
2017-03-16T07:38:46.364Z,26.67
2017-03-16T07:39:46.371Z,26.39
2017-03-16T07:40:46.376Z,26.3
2017-03-16T07:41:46.432Z,25.92
2017-03-16T07:42:46.439Z,25.82
2017-03-16T07:43:46.396Z,25.82
2017-03-16T07:44:46.401Z,25.73
2017-03-16T07:45:46.144Z,26.03
2017-03-16T07:46:46.146Z,25.44
2017-03-16T07:47:46.667Z,25.05
2017-03-16T07:48:46.470Z,25.25
2017-03-16T07:49:46.428Z,25.35
2017-03-16T07:50:46.436Z,25.44
2017-03-16T07:51:46.443Z,25.16
2017-03-16T07:52:47.284Z,25.54
2017-03-16T07:53:46.506Z,25.26
2017-03-16T07:54:46.512Z,24.97
2017-03-16T07:55:46.516Z,24.97
2017-03-16T07:56:46.472Z,24.96
2017-03-16T07:57:46.480Z,25.07
2017-03-16T07:58:46.538Z,24.87
2017-03-16T07:59:46.540Z,24.58
2017-03-16T08:00:46.500Z,24.68
2017-03-16T08:01:46.552Z,24.29
2017-03-16T08:02:46.300Z,24.5
2017-03-16T08:03:46.567Z,24.6
2017-03-16T08:04:46.570Z,24.21
2017-03-16T08:05:46.527Z,24.5
2017-03-16T08:06:46.535Z,24.5
2017-03-16T08:07:46.593Z,24.29
2017-03-16T08:08:46.601Z,24.21
2017-03-16T08:09:46.555Z,24.5
2017-03-16T08:10:46.559Z,23.92
2017-03-16T08:11:46.567Z,24.02
2017-03-16T08:12:46.627Z,24.11
2017-03-16T08:13:46.265Z,24.3
2017-03-16T08:14:46.637Z,23.43
2017-03-16T08:15:46.643Z,23.64
2017-03-16T08:16:46.599Z,23.54
2017-03-16T08:17:46.656Z,23.44
2017-03-16T08:18:46.298Z,21.33
2017-03-16T08:19:46.619Z,19.52
2017-03-16T08:20:46.677Z,18
2017-03-16T08:21:46.686Z,17.53
2017-03-16T08:22:46.645Z,16.86
2017-03-16T08:23:46.702Z,16.38
2017-03-16T08:24:46.661Z,15.9
2017-03-16T08:25:46.404Z,15.91
2017-03-16T08:26:46.737Z,16.11
2017-03-16T08:27:46.688Z,15.92
2017-03-16T08:28:46.746Z,15.43
2017-03-16T08:29:46.758Z,15.53
2017-03-16T08:30:46.773Z,15.53
2017-03-16T08:31:46.779Z,15.53
2017-03-16T08:32:46.791Z,15.44
2017-03-16T08:33:46.796Z,15.34
2017-03-16T08:34:46.808Z,15.24
2017-03-16T08:35:46.769Z,15.24
2017-03-16T08:36:46.516Z,15.34
2017-03-16T08:37:46.789Z,14.95
2017-03-16T08:38:46.852Z,14.95
2017-03-16T08:39:46.862Z,14.66
2017-03-16T08:40:46.825Z,14.66
2017-03-16T08:41:46.836Z,14.76
2017-03-16T08:42:46.583Z,14.66
2017-03-16T08:43:46.857Z,14.86
2017-03-16T08:44:46.868Z,14.95
2017-03-16T08:45:46.882Z,15.05
2017-03-16T08:46:46.629Z,15.15
2017-03-16T08:47:46.589Z,15.05
2017-03-16T08:48:47.013Z,15.05
2017-03-16T08:49:46.978Z,14.56
2017-03-16T08:50:46.986Z,14.66
2017-03-16T08:51:46.952Z,14.47
2017-03-16T08:52:46.958Z,14.57
2017-03-16T08:53:47.023Z,14.37
2017-03-16T08:54:47.081Z,15.15
2017-03-16T08:55:46.732Z,14.47
2017-03-16T08:56:47.053Z,14.47
2017-03-16T08:57:46.701Z,14.67
2017-03-16T08:58:47.084Z,14.57
2017-03-16T08:59:47.038Z,14.76
2017-03-16T09:00:47.053Z,14.57
2017-03-16T09:01:46.751Z,14.76
2017-03-16T09:02:47.176Z,14.57
2017-03-16T09:03:47.085Z,14.27
2017-03-16T09:04:47.148Z,14.76
2017-03-16T09:05:47.113Z,14.57
2017-03-16T09:06:46.858Z,14.67
2017-03-16T09:07:47.134Z,14.28
2017-03-16T09:08:47.144Z,14.57
2017-03-16T09:09:47.158Z,14.18
2017-03-16T09:10:47.171Z,14.86
2017-03-16T09:11:47.235Z,14.66
2017-03-16T09:12:47.244Z,14.57
2017-03-16T09:13:47.204Z,14.57
2017-03-16T09:14:47.217Z,14.86
2017-03-16T09:15:47.227Z,14.76
2017-03-16T09:16:47.239Z,14.86
2017-03-16T09:17:47.253Z,14.85
2017-03-16T09:18:47.315Z,14.95
2017-03-16T09:19:47.322Z,15.63
2017-03-16T09:20:47.383Z,15.24
2017-03-16T09:21:47.291Z,15.53
2017-03-16T09:22:47.303Z,15.53
2017-03-16T09:23:46.998Z,16
2017-03-16T09:24:47.368Z,17.27
2017-03-16T09:25:47.431Z,18.21
2017-03-16T09:26:47.340Z,19.75
2017-03-16T09:27:47.035Z,20.5
2017-03-16T09:28:47.359Z,21.36
2017-03-16T09:29:47.419Z,21.83
2017-03-16T09:30:47.424Z,22.02
2017-03-16T09:31:47.384Z,22.3
2017-03-16T09:32:47.390Z,22.97
2017-03-16T09:33:47.497Z,23.16
2017-03-16T09:34:47.407Z,23.16
2017-03-16T09:35:47.466Z,23.44
2017-03-16T09:36:47.524Z,23.72
2017-03-16T09:37:47.167Z,23.53
2017-03-16T09:38:47.537Z,23.13
2017-03-16T09:39:47.446Z,23.13
2017-03-16T09:40:47.504Z,24.39
2017-03-16T09:41:47.461Z,24.58
2017-03-16T09:42:47.518Z,24.68
2017-03-16T09:43:47.576Z,25.15
2017-03-16T09:44:47.532Z,25.44
2017-03-16T09:45:47.227Z,25.62
2017-03-16T09:46:47.498Z,24.95
2017-03-16T09:47:47.507Z,25.24
2017-03-16T09:48:47.514Z,25.34
2017-03-16T09:49:47.517Z,25.43
2017-03-16T09:50:47.527Z,24.95
2017-03-16T09:51:47.584Z,25.04
2017-03-16T09:52:47.592Z,25.04
2017-03-16T09:53:47.599Z,25.34
2017-03-16T09:54:47.556Z,25.34
2017-03-16T09:55:47.564Z,25.43
2017-03-16T09:56:47.617Z,25.81
2017-03-16T09:57:47.579Z,25.92
2017-03-16T09:58:47.583Z,25.81
2017-03-16T09:59:47.648Z,25.81
2017-03-16T10:00:47.596Z,25.42
2017-03-16T10:01:47.657Z,25.61
2017-03-16T10:02:47.610Z,25.42
2017-03-16T10:03:47.616Z,25.31
2017-03-16T10:04:47.674Z,25.13
2017-03-16T10:05:47.630Z,25.51
2017-03-16T10:06:47.688Z,25.14
2017-03-16T10:07:48.893Z,24.85
2017-03-16T10:08:47.649Z,24.85
2017-03-16T10:09:47.657Z,24.37
2017-03-16T10:10:47.665Z,24.27
2017-03-16T10:11:47.671Z,24.56
2017-03-16T10:12:47.678Z,24.27
2017-03-16T10:13:47.685Z,24.08
2017-03-16T10:14:47.479Z,24.84
2017-03-16T10:15:47.695Z,24.56
2017-03-16T10:16:47.752Z,24.08
2017-03-16T10:17:47.398Z,24.27
2017-03-16T10:18:47.716Z,23.98
2017-03-16T10:19:47.724Z,24.17
2017-03-16T10:20:47.730Z,24.37
2017-03-16T10:21:47.788Z,24.46
2017-03-16T10:22:47.793Z,24.56
2017-03-16T10:23:47.486Z,24.27
2017-03-16T10:24:47.808Z,24.46
2017-03-16T10:25:47.500Z,24.09
2017-03-16T10:26:47.769Z,23.32
2017-03-16T10:27:47.774Z,24.08
2017-03-16T10:28:47.838Z,24.09
2017-03-16T10:29:47.843Z,23.98
2017-03-16T10:30:47.844Z,23.98
2017-03-16T10:31:47.852Z,24.28
2017-03-16T10:32:47.810Z,24.17
2017-03-16T10:33:47.503Z,24.17
2017-03-16T10:34:47.872Z,23.99
2017-03-16T10:35:47.514Z,23.3
2017-03-16T10:36:47.572Z,24.08
2017-03-16T10:37:47.579Z,24.35
2017-03-16T10:38:47.897Z,24.27
2017-03-16T10:39:47.591Z,23.98
2017-03-16T10:40:47.859Z,24.08
2017-03-16T10:41:47.917Z,24.08
2017-03-16T10:42:47.922Z,24.08
2017-03-16T10:43:47.930Z,24.17
2017-03-16T10:44:47.935Z,24.45
2017-03-16T10:45:47.942Z,24.65
2017-03-16T10:46:47.949Z,24.37
2017-03-16T10:47:47.641Z,24.56
2017-03-16T10:48:47.908Z,24.26
2017-03-16T10:49:47.919Z,24.45
2017-03-16T10:50:47.922Z,24.16
2017-03-16T10:51:47.926Z,24.66
2017-03-16T10:52:47.933Z,24.65
2017-03-16T10:53:48.035Z,24.55
2017-03-16T10:54:47.946Z,24.85
2017-03-16T10:55:48.001Z,24.93
2017-03-16T10:56:48.006Z,25.23
2017-03-16T10:57:48.015Z,25.13
2017-03-16T10:58:47.969Z,24.93
2017-03-16T10:59:47.662Z,24.55
2017-03-16T11:00:47.667Z,24.26
2017-03-16T11:01:47.727Z,24.45
2017-03-16T11:02:47.992Z,24.84
2017-03-16T11:03:48.049Z,24.65
2017-03-16T11:04:48.063Z,24.35
2017-03-16T11:05:48.065Z,24.55
2017-03-16T11:06:48.018Z,24.16
2017-03-16T11:07:47.713Z,24.45
2017-03-16T11:08:47.718Z,24.45
2017-03-16T11:09:48.088Z,24.55
2017-03-16T11:10:48.043Z,24.45
2017-03-16T11:11:48.046Z,24.26
2017-03-16T11:12:48.105Z,24.35
2017-03-16T11:13:48.113Z,24.16
2017-03-16T11:14:48.068Z,24.16
2017-03-16T11:15:48.125Z,24.84
2017-03-16T11:16:48.178Z,24.55
2017-03-16T11:17:48.134Z,24.26
2017-03-16T11:18:47.782Z,24.27
2017-03-16T11:19:48.153Z,24.26
2017-03-16T11:20:47.893Z,24.54
2017-03-16T11:21:48.559Z,24.16
2017-03-16T11:22:48.115Z,24.35
2017-03-16T11:23:47.808Z,24.45
2017-03-16T11:24:48.176Z,24.45
2017-03-16T11:25:48.131Z,24.17
2017-03-16T11:26:48.192Z,24.45
2017-03-16T11:27:48.195Z,24.56
2017-03-16T11:28:48.153Z,24.07
2017-03-16T11:29:47.949Z,24.16
2017-03-16T11:30:48.165Z,24.26
2017-03-16T11:31:48.471Z,24.45
2017-03-16T11:32:48.227Z,24.65
2017-03-16T11:33:48.231Z,24.45
2017-03-16T11:34:48.190Z,25.13
2017-03-16T11:35:47.933Z,24.65
2017-03-16T11:36:48.200Z,23.77
2017-03-16T11:37:48.560Z,24.54
2017-03-16T11:38:48.211Z,24.65
2017-03-16T11:39:48.218Z,25.23
2017-03-16T11:40:48.323Z,24.45
2017-03-16T11:41:48.228Z,24.84
2017-03-16T11:42:48.233Z,24.55
2017-03-16T11:43:48.243Z,24.45
2017-03-16T11:44:47.984Z,23.87
2017-03-16T11:45:48.305Z,24.16
2017-03-16T11:46:48.311Z,23.87
2017-03-16T11:47:48.266Z,23.68
2017-03-16T11:48:48.272Z,23.39
2017-03-16T11:49:49.576Z,23.1
2017-03-16T11:50:48.284Z,23.28
2017-03-16T11:51:48.341Z,23.08
2017-03-16T11:52:48.348Z,23.39
2017-03-16T11:53:48.301Z,23.08
2017-03-16T11:54:48.316Z,23.19
2017-03-16T11:55:48.424Z,23.49
2017-03-16T11:56:48.371Z,22.89
2017-03-16T11:57:48.377Z,23.38
2017-03-16T11:58:48.073Z,22.91
2017-03-16T11:59:48.389Z,23.1
2017-03-16T12:00:48.445Z,22.99
2017-03-16T12:01:48.651Z,23.08
2017-03-16T12:02:48.357Z,23.08
2017-03-16T12:03:48.414Z,23.08
2017-03-16T12:04:48.373Z,23.1
2017-03-16T12:05:48.381Z,23.39
2017-03-16T12:06:48.482Z,23.19
2017-03-16T12:07:48.390Z,23.19
2017-03-16T12:08:48.395Z,23.1
2017-03-16T12:09:48.453Z,23.39
2017-03-16T12:10:48.144Z,23.28
2017-03-16T12:11:48.410Z,23.28
2017-03-16T12:12:48.417Z,23.28
2017-03-16T12:13:48.428Z,22.99
2017-03-16T12:14:48.480Z,23.08
2017-03-16T12:15:48.486Z,23.66
2017-03-16T12:16:48.490Z,23.47
2017-03-16T12:17:48.447Z,23.28
2017-03-16T12:18:48.505Z,23.28
2017-03-16T12:19:48.161Z,23.29
2017-03-16T12:20:48.154Z,23.18
2017-03-16T12:21:48.210Z,23.28
2017-03-16T12:22:48.575Z,23.18
2017-03-16T12:23:48.219Z,22.89
2017-03-16T12:24:48.541Z,23.66
2017-03-16T12:25:48.498Z,24.05
2017-03-16T12:26:48.501Z,22.89
2017-03-16T12:27:48.193Z,23.19
2017-03-16T12:28:48.563Z,23.18
2017-03-16T12:29:48.568Z,23.28
2017-03-16T12:30:48.527Z,23.57
2017-03-16T12:31:48.219Z,23.29
2017-03-16T12:32:48.537Z,23.18
2017-03-16T12:33:48.542Z,23.28
2017-03-16T12:34:48.549Z,22.91
2017-03-16T12:35:48.604Z,22.91
2017-03-16T12:36:48.563Z,22.8
2017-03-16T12:37:48.570Z,22.81
2017-03-16T12:38:48.572Z,22.61
2017-03-16T12:39:48.631Z,22.89
2017-03-16T12:40:48.588Z,22.89
2017-03-16T12:41:48.644Z,22.5
2017-03-16T12:42:48.648Z,22.89
2017-03-16T12:43:48.659Z,23.28
2017-03-16T12:44:48.613Z,23.28
2017-03-16T12:45:48.718Z,23.18
2017-03-16T12:46:48.311Z,23.28
2017-03-16T12:47:48.679Z,22.91
2017-03-16T12:48:48.633Z,21.94
2017-03-16T12:49:48.691Z,22.99
2017-03-16T12:50:48.649Z,22.89
2017-03-16T12:51:48.654Z,22.5
2017-03-16T12:52:48.658Z,23.08
2017-03-16T12:53:48.403Z,22.89
2017-03-16T12:54:48.672Z,22.7
2017-03-16T12:55:48.734Z,22.6
2017-03-16T12:56:48.684Z,22.61